createdAt,value
2023-02-27T00:00:15.787Z,24.22
2023-02-27T00:01:19.954Z,24.22
2023-02-27T00:02:24.406Z,24.22
2023-02-27T00:03:27.147Z,24.22
2023-02-27T00:04:30.318Z,24.22
2023-02-27T00:05:33.134Z,24.22
2023-02-27T00:06:35.896Z,24.21
2023-02-27T00:07:38.431Z,24.22
2023-02-27T00:08:41.058Z,24.22
2023-02-27T00:09:43.969Z,24.22
2023-02-27T00:10:46.678Z,24.22
2023-02-27T00:11:49.160Z,24.22
2023-02-27T00:12:51.822Z,24.22
2023-02-27T00:13:54.398Z,24.23
2023-02-27T00:14:57.730Z,24.22
2023-02-27T00:16:00.468Z,24.22
2023-02-27T00:17:03.223Z,24.23
2023-02-27T00:18:07.004Z,24.22
2023-02-27T00:19:11.118Z,24.23
2023-02-27T00:20:16.235Z,24.21
2023-02-27T00:21:18.959Z,24.22
2023-02-27T00:22:21.733Z,24.23
2023-02-27T00:23:25.982Z,24.23
2023-02-27T00:24:29.874Z,24.23
2023-02-27T00:25:33.513Z,24.22
2023-02-27T00:26:38.390Z,24.22
2023-02-27T00:27:41.152Z,24.22
2023-02-27T00:28:43.761Z,24.23
2023-02-27T00:29:47.314Z,24.23
2023-02-27T00:30:49.871Z,24.24
2023-02-27T00:31:54.443Z,24.23
2023-02-27T00:32:57.376Z,24.24
2023-02-27T00:34:00.242Z,24.26
2023-02-27T00:35:06.825Z,24.26
2023-02-27T00:36:09.641Z,24.24
2023-02-27T00:37:12.649Z,24.24
2023-02-27T00:38:15.154Z,24.24
2023-02-27T00:39:17.585Z,24.23
2023-02-27T00:40:20.623Z,24.23
2023-02-27T00:41:23.036Z,24.24
2023-02-27T00:42:29.768Z,24.22
2023-02-27T00:43:32.978Z,24.23
2023-02-27T00:44:35.979Z,24.24
2023-02-27T00:45:38.517Z,24.22
2023-02-27T00:46:41.472Z,24.21
2023-02-27T00:47:44.258Z,24.21
2023-02-27T00:48:46.777Z,24.21
2023-02-27T00:49:49.861Z,24.20
2023-02-27T00:50:53.648Z,24.19
2023-02-27T00:51:56.139Z,24.18
2023-02-27T00:52:59.727Z,24.19
2023-02-27T00:54:03.263Z,24.18
2023-02-27T00:55:08.364Z,24.18
2023-02-27T00:56:11.814Z,24.17
2023-02-27T00:57:16.072Z,24.16
2023-02-27T00:58:19.676Z,24.15
2023-02-27T00:59:23.582Z,24.15
2023-02-27T01:00:28.501Z,24.15
2023-02-27T01:01:32.373Z,24.15
2023-02-27T01:02:35.375Z,24.14
2023-02-27T01:03:38.580Z,24.14
2023-02-27T01:04:41.134Z,24.13
2023-02-27T01:05:44.123Z,24.13
2023-02-27T01:06:48.373Z,24.12
2023-02-27T01:07:51.215Z,24.12
2023-02-27T01:08:56.219Z,24.11
2023-02-27T01:10:01.785Z,24.12
2023-02-27T01:11:05.109Z,24.11
2023-02-27T01:12:07.835Z,24.11
2023-02-27T01:13:11.392Z,24.11
2023-02-27T01:14:14.523Z,24.11
2023-02-27T01:15:21.721Z,24.11
2023-02-27T01:16:24.397Z,24.10
2023-02-27T01:17:27.362Z,24.10
2023-02-27T01:18:29.805Z,24.08
2023-02-27T01:19:32.173Z,24.09
2023-02-27T01:20:34.708Z,24.08
2023-02-27T01:21:37.706Z,24.08
2023-02-27T01:22:43.556Z,24.07
2023-02-27T01:23:47.917Z,24.08
2023-02-27T01:24:51.693Z,24.06
2023-02-27T01:25:54.319Z,24.08
2023-02-27T01:26:57.087Z,24.06
2023-02-27T01:28:00.365Z,24.06
2023-02-27T01:29:06.334Z,24.06
2023-02-27T01:30:11.435Z,24.06
2023-02-27T01:31:14.766Z,24.07
2023-02-27T01:32:18.430Z,24.06
2023-02-27T01:33:22.755Z,24.06
2023-02-27T01:34:25.290Z,24.06
2023-02-27T01:35:27.945Z,24.05
2023-02-27T01:36:31.427Z,24.06
2023-02-27T01:37:34.072Z,24.06
2023-02-27T01:38:36.607Z,24.05
2023-02-27T01:39:41.246Z,24.05
2023-02-27T01:40:44.181Z,24.06
2023-02-27T01:41:47.041Z,24.05
2023-02-27T01:42:49.776Z,24.06
2023-02-27T01:43:55.827Z,24.06
2023-02-27T01:45:26.982Z,24.05
2023-02-27T01:46:30.934Z,24.05
2023-02-27T01:47:33.708Z,24.02
2023-02-27T01:48:37.158Z,24.02
2023-02-27T01:49:39.656Z,24.00
2023-02-27T01:50:57.806Z,24.00
2023-02-27T01:52:05.420Z,24.01
2023-02-27T01:53:08.025Z,24.00
2023-02-27T01:54:10.695Z,24.01
2023-02-27T01:55:13.598Z,24.00
2023-02-27T01:56:28.192Z,24.01
2023-02-27T01:57:30.708Z,24.02
2023-02-27T01:58:33.950Z,23.97
2023-02-27T01:59:39.437Z,23.97
2023-02-27T02:00:43.338Z,24.02
2023-02-27T02:01:47.521Z,24.03
2023-02-27T02:04:14.924Z,24.13
2023-02-27T02:05:17.381Z,24.02
2023-02-27T02:06:20.502Z,24.03
2023-02-27T02:07:24.779Z,24.04
2023-02-27T02:08:28.463Z,24.05
2023-02-27T02:09:31.259Z,24.05
2023-02-27T02:10:35.061Z,24.05
2023-02-27T02:11:39.129Z,24.05
2023-02-27T02:12:41.945Z,24.05
2023-02-27T02:13:45.516Z,24.07
2023-02-27T02:14:47.819Z,24.07
2023-02-27T02:16:01.058Z,24.07
2023-02-27T02:17:17.099Z,24.07
2023-02-27T02:19:55.249Z,24.18
2023-02-27T02:21:06.816Z,24.09
2023-02-27T02:22:42.947Z,24.07
2023-02-27T02:24:23.817Z,24.07
2023-02-27T02:25:53.475Z,24.06
2023-02-27T02:27:27.439Z,24.06
2023-02-27T02:30:33.235Z,24.11
2023-02-27T02:32:02.571Z,24.00
2023-02-27T02:33:13.032Z,23.98
2023-02-27T02:34:40.540Z,23.96
2023-02-27T02:36:08.514Z,23.95
2023-02-27T02:37:17.770Z,23.94
2023-02-27T02:38:37.083Z,23.93
2023-02-27T02:40:10.715Z,23.92
2023-02-27T02:41:26.360Z,23.91
2023-02-27T02:42:35.813Z,23.91
2023-02-27T02:43:48.830Z,23.90
2023-02-27T02:45:10.029Z,23.89
2023-02-27T02:46:16.896Z,23.89
2023-02-27T02:49:12.046Z,24.00
2023-02-27T02:50:29.768Z,23.89
2023-02-27T02:53:01.527Z,24.00
2023-02-27T02:54:30.922Z,23.88
2023-02-27T02:55:47.163Z,23.89
2023-02-27T02:57:08.965Z,23.90
2023-02-27T02:59:43.862Z,24.02
2023-02-27T03:02:03.328Z,24.03
2023-02-27T03:03:14.712Z,23.92
2023-02-27T03:04:41.776Z,23.93
2023-02-27T03:07:09.837Z,24.07
2023-02-27T03:08:16.111Z,23.96
2023-02-27T03:09:28.464Z,23.97
2023-02-27T03:10:41.519Z,23.97
2023-02-27T03:11:47.593Z,23.97
2023-02-27T03:12:53.915Z,23.98
2023-02-27T03:14:03.233Z,23.99
2023-02-27T03:15:20.341Z,23.99
2023-02-27T03:17:49.165Z,24.10
2023-02-27T03:19:07.551Z,24.01
2023-02-27T03:21:50.902Z,24.11
2023-02-27T03:22:55.631Z,24.01
2023-02-27T03:23:59.766Z,24.00
2023-02-27T03:25:05.769Z,24.00
2023-02-27T03:26:09.701Z,24.00
2023-02-27T03:27:12.796Z,24.02
2023-02-27T03:28:18.607Z,24.02
2023-02-27T03:29:24.952Z,24.03
2023-02-27T03:31:59.704Z,24.14
2023-02-27T03:33:08.936Z,24.05
2023-02-27T03:34:21.283Z,24.05
2023-02-27T03:36:49.062Z,24.14
2023-02-27T03:37:58.430Z,24.04
2023-02-27T03:39:13.750Z,24.05
2023-02-27T03:40:30.158Z,24.04
2023-02-27T03:41:46.546Z,24.03
2023-02-27T03:44:26.798Z,24.14
2023-02-27T03:45:49.928Z,24.03
2023-02-27T03:46:54.165Z,24.02
2023-02-27T03:47:57.981Z,24.01
2023-02-27T03:49:00.461Z,24.01
2023-02-27T03:50:04.479Z,24.00
2023-02-27T03:51:07.137Z,24.00
2023-02-27T03:52:10.848Z,24.02
2023-02-27T03:53:23.227Z,24.00
2023-02-27T03:54:27.438Z,24.02
2023-02-27T03:55:35.706Z,24.02
2023-02-27T03:56:44.488Z,24.03
2023-02-27T03:57:47.806Z,24.03
2023-02-27T03:58:50.846Z,24.03
2023-02-27T03:59:54.767Z,24.03
2023-02-27T04:00:58.835Z,24.05
2023-02-27T04:02:02.960Z,24.06
2023-02-27T04:03:05.918Z,24.05
2023-02-27T04:04:14.414Z,24.05
2023-02-27T04:05:35.213Z,24.06
2023-02-27T04:07:05.356Z,24.06
2023-02-27T04:08:27.139Z,24.06
2023-02-27T04:11:29.235Z,24.13
2023-02-27T04:12:56.044Z,24.02
2023-02-27T04:15:40.406Z,24.09
2023-02-27T04:16:49.998Z,23.98
2023-02-27T04:19:39.617Z,24.07
2023-02-27T04:21:01.012Z,23.95
2023-02-27T04:22:19.471Z,23.95
2023-02-27T04:23:39.938Z,23.95
2023-02-27T04:26:22.253Z,24.06
2023-02-27T04:28:55.886Z,24.05
2023-02-27T04:30:11.824Z,23.94
2023-02-27T04:31:39.369Z,23.94
2023-02-27T04:34:08.687Z,24.05
2023-02-27T04:36:33.303Z,24.06
2023-02-27T04:37:39.522Z,23.94
2023-02-27T04:38:45.496Z,23.95
2023-02-27T04:39:54.702Z,23.95
2023-02-27T04:41:02.810Z,23.97
2023-02-27T04:42:11.349Z,23.97
2023-02-27T04:43:14.438Z,23.98
2023-02-27T04:44:18.406Z,23.99
2023-02-27T04:45:23.471Z,23.99
2023-02-27T04:46:27.208Z,23.99
2023-02-27T04:47:36.532Z,24.00
2023-02-27T04:50:29.058Z,24.12
2023-02-27T04:52:55.694Z,24.13
2023-02-27T04:54:00.834Z,24.02
2023-02-27T04:56:26.868Z,24.13
2023-02-27T04:57:41.588Z,24.01
2023-02-27T04:58:50.008Z,24.03
2023-02-27T04:59:54.562Z,24.02
2023-02-27T05:01:01.924Z,24.03
2023-02-27T05:02:08.362Z,24.04
2023-02-27T05:03:13.531Z,24.04
2023-02-27T05:04:17.841Z,24.05
2023-02-27T05:06:36.081Z,24.15
2023-02-27T05:07:41.328Z,24.06
2023-02-27T05:09:02.855Z,24.06
2023-02-27T05:10:07.825Z,24.05
2023-02-27T05:11:25.554Z,24.07
2023-02-27T05:12:35.304Z,24.07
2023-02-27T05:15:13.646Z,24.18
2023-02-27T05:16:38.295Z,24.07
2023-02-27T05:17:45.345Z,24.07
2023-02-27T05:18:48.854Z,24.07
2023-02-27T05:19:51.303Z,24.06
2023-02-27T05:22:46.371Z,24.17
2023-02-27T05:23:56.367Z,24.06
2023-02-27T05:25:03.496Z,24.06
2023-02-27T05:26:29.590Z,24.06
2023-02-27T05:27:41.591Z,24.06
2023-02-27T05:28:53.877Z,24.06
2023-02-27T05:30:06.447Z,24.07
2023-02-27T05:31:28.537Z,24.05
2023-02-27T05:33:58.588Z,24.15
2023-02-27T05:35:11.250Z,24.05
2023-02-27T05:36:29.655Z,24.05
2023-02-27T05:37:43.340Z,24.05
2023-02-27T05:38:51.990Z,24.05
2023-02-27T05:39:55.857Z,24.03
2023-02-27T05:41:12.084Z,24.05
2023-02-27T05:42:30.067Z,24.05
2023-02-27T05:43:39.511Z,24.04
2023-02-27T05:44:44.503Z,24.05
2023-02-27T05:45:50.098Z,24.06
2023-02-27T05:46:55.738Z,24.06
2023-02-27T05:48:04.941Z,24.07
2023-02-27T05:49:26.900Z,24.07
2023-02-27T05:50:31.211Z,24.07
2023-02-27T05:51:35.227Z,24.07
2023-02-27T05:52:38.779Z,24.07
2023-02-27T05:53:44.883Z,23.98
2023-02-27T05:54:53.171Z,23.98
2023-02-27T05:55:58.749Z,24.09
2023-02-27T05:57:02.474Z,24.10
2023-02-27T05:58:26.479Z,24.10
2023-02-27T05:59:51.550Z,24.12
2023-02-27T06:00:59.048Z,24.11
2023-02-27T06:02:02.652Z,24.12
2023-02-27T06:03:06.531Z,24.11
2023-02-27T06:04:10.063Z,24.11
2023-02-27T06:05:16.415Z,24.11
2023-02-27T06:06:20.214Z,24.11
2023-02-27T06:07:23.953Z,24.12
2023-02-27T06:08:26.757Z,24.12
2023-02-27T06:09:29.138Z,24.13
2023-02-27T06:10:34.846Z,24.13
2023-02-27T06:11:38.017Z,24.14
2023-02-27T06:12:41.724Z,24.14
2023-02-27T06:13:44.986Z,24.14
2023-02-27T06:14:47.581Z,24.15
2023-02-27T06:15:49.900Z,24.14
2023-02-27T06:16:52.732Z,24.15
2023-02-27T06:17:55.911Z,24.15
2023-02-27T06:18:58.344Z,24.16
2023-02-27T06:20:01.839Z,24.17
2023-02-27T06:21:05.293Z,24.18
2023-02-27T06:22:11.171Z,24.18
2023-02-27T06:23:13.847Z,24.19
2023-02-27T06:24:16.421Z,24.19
2023-02-27T06:25:21.507Z,24.20
2023-02-27T06:26:24.127Z,24.20
2023-02-27T06:27:27.200Z,24.20
2023-02-27T06:28:29.827Z,24.20
2023-02-27T06:29:33.133Z,24.21
2023-02-27T06:30:37.089Z,24.22
2023-02-27T06:31:39.806Z,24.22
2023-02-27T06:32:42.254Z,24.22
2023-02-27T06:33:45.137Z,24.23
2023-02-27T06:34:48.320Z,24.22
2023-02-27T06:35:52.238Z,24.23
2023-02-27T06:36:55.022Z,24.23
2023-02-27T06:37:58.687Z,24.24
2023-02-27T06:39:01.398Z,24.24
2023-02-27T06:40:07.905Z,24.23
2023-02-27T06:41:10.407Z,24.23
2023-02-27T06:42:13.459Z,24.23
2023-02-27T06:43:16.057Z,24.24
2023-02-27T06:44:19.662Z,24.25
2023-02-27T06:45:24.713Z,24.24
2023-02-27T06:46:28.048Z,24.25
2023-02-27T06:47:31.177Z,24.24
2023-02-27T06:48:33.656Z,24.23
2023-02-27T06:49:36.640Z,24.24
2023-02-27T06:50:39.333Z,24.27
2023-02-27T06:51:45.003Z,24.25
2023-02-27T06:52:47.461Z,24.17
2023-02-27T06:53:49.927Z,24.25
2023-02-27T06:54:52.824Z,24.25
2023-02-27T06:55:55.345Z,24.25
2023-02-27T06:56:59.768Z,24.24
2023-02-27T06:58:02.504Z,24.25
2023-02-27T06:59:05.331Z,24.24
2023-02-27T07:00:11.368Z,24.24
2023-02-27T07:01:14.065Z,24.24
2023-02-27T07:02:17.202Z,24.24
2023-02-27T07:03:20.181Z,24.24
2023-02-27T07:04:23.226Z,24.23
2023-02-27T07:05:26.210Z,24.24
2023-02-27T07:07:32.666Z,24.26
2023-02-27T07:07:38.027Z,24.26
2023-02-27T07:09:00.931Z,24.24
2023-02-27T07:09:43.641Z,24.24
2023-02-27T07:10:48.421Z,24.24
2023-02-27T07:11:51.004Z,24.24
2023-02-27T07:12:53.776Z,24.24
2023-02-27T07:13:56.296Z,24.24
2023-02-27T07:14:58.973Z,24.23
2023-02-27T07:16:01.958Z,24.23
2023-02-27T07:17:04.965Z,24.24
2023-02-27T07:18:08.080Z,24.24
2023-02-27T07:19:12.151Z,24.23
2023-02-27T07:20:14.861Z,24.23
2023-02-27T07:21:17.911Z,24.23
2023-02-27T07:22:20.509Z,24.23
2023-02-27T07:23:23.027Z,24.24
2023-02-27T07:24:25.643Z,24.23
2023-02-27T07:25:29.532Z,24.23
2023-02-27T07:26:32.234Z,24.24
2023-02-27T07:27:34.679Z,24.18
2023-02-27T07:28:38.089Z,24.18
2023-02-27T07:29:41.007Z,24.24
2023-02-27T07:30:45.175Z,24.24
2023-02-27T07:31:48.933Z,24.26
2023-02-27T07:32:52.203Z,24.24
2023-02-27T07:33:54.665Z,24.25
2023-02-27T07:34:58.400Z,24.25
2023-02-27T07:36:00.782Z,24.24
2023-02-27T07:37:04.485Z,24.24
2023-02-27T07:38:07.486Z,24.24
2023-02-27T07:39:11.751Z,24.24
2023-02-27T07:40:14.968Z,24.24
2023-02-27T07:41:29.626Z,24.24
2023-02-27T07:42:22.028Z,24.23
2023-02-27T07:43:25.240Z,24.24
2023-02-27T07:44:28.216Z,24.22
2023-02-27T07:45:30.911Z,24.24
2023-02-27T07:46:33.885Z,24.23
2023-02-27T07:47:36.644Z,24.24
2023-02-27T07:48:40.845Z,24.23
2023-02-27T07:49:43.574Z,24.23
2023-02-27T07:50:46.167Z,24.24
2023-02-27T07:51:48.853Z,24.24
2023-02-27T07:52:51.539Z,24.24
2023-02-27T07:53:57.796Z,24.23
2023-02-27T07:55:00.848Z,24.24
2023-02-27T07:56:04.192Z,24.23
2023-02-27T07:57:06.717Z,24.24
2023-02-27T07:58:09.709Z,24.24
2023-02-27T07:59:12.544Z,24.24
2023-02-27T08:00:15.891Z,24.23
2023-02-27T08:01:19.492Z,24.24
2023-02-27T08:02:22.506Z,24.23
2023-02-27T08:03:25.400Z,24.23
2023-02-27T08:04:28.619Z,24.24
2023-02-27T08:05:31.199Z,24.24
2023-02-27T08:06:34.024Z,24.25
2023-02-27T08:07:36.944Z,24.25
2023-02-27T08:08:39.545Z,24.26
2023-02-27T08:09:42.131Z,24.26
2023-02-27T08:10:45.543Z,24.26
2023-02-27T08:11:49.256Z,24.26
2023-02-27T08:12:53.539Z,24.26
2023-02-27T08:14:00.459Z,24.25
2023-02-27T08:15:01.095Z,24.26
2023-02-27T08:16:04.797Z,24.26
2023-02-27T08:17:09.227Z,24.25
2023-02-27T08:18:11.969Z,24.25
2023-02-27T08:19:15.073Z,24.26
2023-02-27T08:20:20.918Z,24.25
2023-02-27T08:21:23.540Z,24.24
2023-02-27T08:22:26.125Z,24.25
2023-02-27T08:23:29.539Z,24.25
2023-02-27T08:24:32.114Z,24.24
2023-02-27T08:25:34.481Z,24.24
2023-02-27T08:26:37.856Z,24.24
2023-02-27T08:27:40.493Z,24.27
2023-02-27T08:28:43.504Z,24.27
2023-02-27T08:29:46.121Z,24.26
2023-02-27T08:30:48.892Z,24.28
2023-02-27T08:31:51.392Z,24.27
2023-02-27T08:32:55.790Z,24.26
2023-02-27T08:34:09.372Z,24.25
2023-02-27T08:35:03.743Z,24.13
2023-02-27T08:36:07.554Z,24.13
2023-02-27T08:37:10.866Z,24.22
2023-02-27T08:38:14.282Z,24.21
2023-02-27T08:39:18.152Z,24.18
2023-02-27T08:40:21.377Z,24.17
2023-02-27T08:41:23.977Z,24.17
2023-02-27T08:42:26.993Z,24.16
2023-02-27T08:43:30.782Z,24.16
2023-02-27T08:44:33.740Z,24.14
2023-02-27T08:45:37.130Z,24.13
2023-02-27T08:46:39.793Z,24.13
2023-02-27T08:47:45.139Z,24.11
2023-02-27T08:48:48.507Z,24.11
2023-02-27T08:49:51.094Z,24.09
2023-02-27T08:50:57.470Z,24.09
2023-02-27T08:52:00.922Z,24.08
2023-02-27T08:53:03.854Z,24.07
2023-02-27T08:54:07.436Z,24.07
2023-02-27T08:55:10.515Z,24.06
2023-02-27T08:56:14.909Z,24.05
2023-02-27T08:57:17.486Z,24.05
2023-02-27T08:58:20.507Z,24.03
2023-02-27T08:59:23.326Z,24.02
2023-02-27T09:00:26.923Z,24.02
2023-02-27T09:01:32.342Z,24.01
2023-02-27T09:02:35.125Z,24.01
2023-02-27T09:03:39.018Z,24.01
2023-02-27T09:04:41.843Z,23.99
2023-02-27T09:05:44.367Z,24.00
2023-02-27T09:06:47.538Z,23.99
2023-02-27T09:07:50.472Z,23.99
2023-02-27T09:08:53.175Z,23.98
2023-02-27T09:09:56.434Z,23.98
2023-02-27T09:10:59.538Z,23.97
2023-02-27T09:12:03.017Z,23.97
2023-02-27T09:13:05.550Z,23.89
2023-02-27T09:14:08.223Z,23.89
2023-02-27T09:15:11.492Z,23.96
2023-02-27T09:16:15.447Z,23.95
2023-02-27T09:17:19.403Z,23.96
2023-02-27T09:18:22.906Z,23.95
2023-02-27T09:19:26.427Z,23.95
2023-02-27T09:20:35.381Z,23.96
2023-02-27T09:21:38.198Z,23.96
2023-02-27T09:22:42.342Z,23.98
2023-02-27T09:23:45.483Z,23.99
2023-02-27T09:24:48.760Z,24.00
2023-02-27T09:25:51.634Z,24.00
2023-02-27T09:26:54.481Z,24.01
2023-02-27T09:27:57.793Z,24.03
2023-02-27T09:29:00.632Z,24.05
2023-02-27T09:30:04.576Z,24.05
2023-02-27T09:31:07.837Z,24.07
2023-02-27T09:32:10.750Z,24.08
2023-02-27T09:33:14.726Z,24.09
2023-02-27T09:34:17.499Z,24.11
2023-02-27T09:35:20.123Z,24.11
2023-02-27T09:36:23.895Z,24.12
2023-02-27T09:37:27.788Z,24.13
2023-02-27T09:38:30.768Z,24.13
2023-02-27T09:39:33.350Z,24.14
2023-02-27T09:40:41.096Z,24.10
2023-02-27T09:41:59.348Z,24.10
2023-02-27T09:43:04.982Z,24.15
2023-02-27T09:44:17.344Z,24.15
2023-02-27T09:45:29.532Z,24.15
2023-02-27T09:46:32.100Z,24.14
2023-02-27T09:47:40.793Z,24.13
2023-02-27T09:50:20.322Z,24.22
2023-02-27T09:51:23.038Z,24.12
2023-02-27T09:52:27.573Z,24.12
2023-02-27T09:53:34.440Z,24.11
2023-02-27T09:54:37.110Z,24.10
2023-02-27T09:55:40.245Z,24.10
2023-02-27T09:56:49.263Z,24.09
2023-02-27T09:57:55.868Z,24.10
2023-02-27T09:59:04.699Z,24.11
2023-02-27T10:00:18.600Z,24.13
2023-02-27T10:03:05.978Z,24.25
2023-02-27T10:06:18.264Z,24.26
2023-02-27T10:07:40.155Z,24.15
2023-02-27T10:10:06.231Z,24.25
2023-02-27T10:11:11.089Z,24.14
2023-02-27T10:12:20.358Z,24.14
2023-02-27T10:14:01.740Z,24.14
2023-02-27T10:16:34.284Z,24.28
2023-02-27T10:19:17.344Z,24.27
2023-02-27T10:20:24.038Z,24.16
2023-02-27T10:21:36.904Z,24.15
2023-02-27T10:22:42.574Z,24.16
2023-02-27T10:25:30.290Z,24.29
2023-02-27T10:26:28.316Z,24.17
2023-02-27T10:27:30.918Z,24.18
2023-02-27T10:28:34.154Z,24.18
2023-02-27T10:30:56.756Z,24.31
2023-02-27T10:32:10.112Z,24.21
2023-02-27T10:33:28.144Z,24.22
2023-02-27T10:34:31.838Z,24.23
2023-02-27T10:35:36.535Z,24.23
2023-02-27T10:36:41.111Z,24.23
2023-02-27T10:37:50.161Z,24.24
2023-02-27T10:39:02.621Z,24.23
2023-02-27T10:40:06.644Z,24.23
2023-02-27T10:41:12.806Z,24.23
2023-02-27T10:42:16.087Z,24.21
2023-02-27T10:43:18.742Z,24.11
2023-02-27T10:44:23.526Z,24.07
2023-02-27T10:45:27.014Z,24.08
2023-02-27T10:46:31.851Z,24.08
2023-02-27T10:47:37.121Z,24.09
2023-02-27T10:48:40.950Z,24.07
2023-02-27T10:49:44.830Z,24.07
2023-02-27T10:50:53.409Z,24.07
2023-02-27T10:52:10.838Z,24.07
2023-02-27T10:53:19.122Z,24.07
2023-02-27T10:54:25.385Z,24.06
2023-02-27T10:55:32.938Z,24.05
2023-02-27T10:56:37.216Z,24.06
2023-02-27T10:57:41.639Z,24.05
2023-02-27T10:58:45.596Z,24.04
2023-02-27T10:59:54.139Z,24.03
2023-02-27T11:00:59.518Z,24.03
2023-02-27T11:02:09.037Z,24.03
2023-02-27T11:03:23.922Z,24.02
2023-02-27T11:04:33.518Z,24.01
2023-02-27T11:05:36.624Z,24.01
2023-02-27T11:06:40.903Z,24.00
2023-02-27T11:07:43.557Z,23.94
2023-02-27T11:08:45.910Z,23.94
2023-02-27T11:09:59.918Z,23.99
2023-02-27T11:11:11.248Z,23.98
2023-02-27T11:12:29.202Z,23.98
2023-02-27T11:13:37.621Z,23.98
2023-02-27T11:14:59.566Z,23.96
2023-02-27T11:16:14.312Z,23.95
2023-02-27T11:17:32.310Z,23.95
2023-02-27T11:18:36.120Z,23.93
2023-02-27T11:19:38.868Z,23.92
2023-02-27T11:20:43.388Z,23.91
2023-02-27T11:23:23.847Z,24.00
2023-02-27T11:24:28.451Z,23.89
2023-02-27T11:25:31.438Z,23.89
2023-02-27T11:26:41.142Z,23.86
2023-02-27T11:27:45.619Z,23.88
2023-02-27T11:29:08.640Z,23.89
2023-02-27T11:30:27.633Z,23.90
2023-02-27T11:31:31.251Z,23.91
2023-02-27T11:32:42.803Z,23.91
2023-02-27T11:33:55.029Z,23.93
2023-02-27T11:34:57.732Z,23.93
2023-02-27T11:36:00.528Z,23.95
2023-02-27T11:38:34.812Z,24.06
2023-02-27T11:39:40.295Z,23.96
2023-02-27T11:42:32.843Z,24.08
2023-02-27T11:43:45.505Z,23.97
2023-02-27T11:44:55.737Z,23.98
2023-02-27T11:46:33.151Z,23.97
2023-02-27T11:47:15.055Z,23.97
2023-02-27T11:48:42.101Z,23.97
2023-02-27T11:50:22.017Z,23.99
2023-02-27T11:51:39.852Z,23.98
2023-02-27T11:53:11.520Z,23.98
2023-02-27T11:55:52.255Z,24.06
2023-02-27T11:58:21.889Z,24.02
2023-02-27T12:01:00.199Z,24.01
2023-02-27T12:02:26.615Z,23.91
2023-02-27T12:03:36.082Z,23.90
2023-02-27T12:04:51.739Z,23.93
2023-02-27T12:05:58.557Z,23.93
2023-02-27T12:07:22.837Z,23.94
2023-02-27T12:08:45.959Z,23.94
2023-02-27T12:10:08.751Z,23.96
2023-02-27T12:11:35.523Z,23.97
2023-02-27T12:12:45.014Z,23.98
2023-02-27T12:13:52.550Z,23.98
2023-02-27T12:14:59.122Z,23.97
2023-02-27T12:16:22.895Z,23.97
2023-02-27T12:17:39.683Z,23.98
2023-02-27T12:18:47.311Z,23.98
2023-02-27T12:19:56.319Z,23.99
2023-02-27T12:21:20.958Z,24.00
2023-02-27T12:22:30.362Z,24.01
2023-02-27T12:23:39.264Z,24.00
2023-02-27T12:26:24.529Z,24.13
2023-02-27T12:27:43.858Z,24.03
2023-02-27T12:30:08.496Z,24.14
2023-02-27T12:31:33.003Z,24.05
2023-02-27T12:34:28.172Z,24.17
2023-02-27T12:35:34.609Z,24.08
2023-02-27T12:36:38.923Z,24.08
2023-02-27T12:37:41.834Z,24.08
2023-02-27T12:38:45.322Z,24.09
2023-02-27T12:39:49.660Z,24.10
2023-02-27T12:41:12.904Z,24.10
2023-02-27T12:42:40.593Z,24.11
2023-02-27T12:43:46.990Z,24.11
2023-02-27T12:45:27.047Z,24.12
2023-02-27T12:48:32.756Z,24.23
2023-02-27T12:49:54.562Z,24.12
2023-02-27T12:51:06.841Z,24.11
2023-02-27T12:52:19.635Z,24.11
2023-02-27T12:53:28.627Z,24.10
2023-02-27T12:54:57.588Z,24.09
2023-02-27T12:56:06.389Z,24.09
2023-02-27T12:57:21.441Z,24.10
2023-02-27T12:58:33.576Z,24.10
2023-02-27T12:59:55.371Z,24.09
2023-02-27T13:02:22.130Z,24.18
2023-02-27T13:04:48.620Z,24.16
2023-02-27T13:06:04.755Z,24.00
2023-02-27T13:08:47.276Z,24.08
2023-02-27T13:09:58.932Z,23.98
2023-02-27T13:11:22.289Z,23.98
2023-02-27T13:12:40.532Z,23.99
2023-02-27T13:14:12.814Z,23.98
2023-02-27T13:15:27.044Z,23.98
2023-02-27T13:16:35.215Z,23.98
2023-02-27T13:17:40.676Z,23.98
2023-02-27T13:19:03.982Z,23.98
2023-02-27T13:20:23.228Z,23.97
2023-02-27T13:21:30.458Z,23.98
2023-02-27T13:24:28.494Z,24.09
2023-02-27T13:25:31.369Z,23.99
2023-02-27T13:26:37.365Z,23.97
2023-02-27T13:27:49.644Z,23.98
2023-02-27T13:28:52.758Z,23.99
2023-02-27T13:30:04.883Z,24.00
2023-02-27T13:31:10.973Z,24.02
2023-02-27T13:32:43.051Z,24.04
2023-02-27T13:33:49.257Z,24.06
2023-02-27T13:36:29.405Z,24.20
2023-02-27T13:37:51.624Z,24.12
2023-02-27T13:38:55.423Z,24.13
2023-02-27T13:39:59.821Z,24.15
2023-02-27T13:42:48.158Z,24.31
2023-02-27T13:43:53.603Z,24.22
2023-02-27T13:46:26.653Z,24.36
2023-02-27T13:47:32.995Z,24.26
2023-02-27T13:48:47.650Z,24.29
2023-02-27T13:49:50.176Z,24.30
2023-02-27T13:50:54.117Z,24.31
2023-02-27T13:51:59.167Z,24.33
2023-02-27T13:53:08.249Z,24.35
2023-02-27T13:54:19.456Z,24.36
2023-02-27T13:55:31.416Z,24.38
2023-02-27T13:56:36.332Z,24.40
2023-02-27T13:57:42.671Z,24.42
2023-02-27T14:00:27.360Z,24.55
2023-02-27T14:01:34.459Z,24.46
2023-02-27T14:03:04.806Z,24.47
2023-02-27T14:04:07.327Z,24.47
2023-02-27T14:05:11.877Z,24.48
2023-02-27T14:06:15.073Z,24.50
2023-02-27T14:07:20.821Z,24.50
2023-02-27T14:08:32.190Z,24.51
2023-02-27T14:09:37.145Z,24.51
2023-02-27T14:10:41.688Z,24.52
2023-02-27T14:12:00.612Z,24.52
2023-02-27T14:13:03.802Z,24.53
2023-02-27T14:14:09.159Z,24.54
2023-02-27T14:15:25.745Z,24.54
2023-02-27T14:16:41.534Z,24.56
2023-02-27T14:17:46.569Z,24.55
2023-02-27T14:18:55.157Z,24.56
2023-02-27T14:19:59.821Z,24.57
2023-02-27T14:21:02.895Z,24.57
2023-02-27T14:22:15.377Z,24.57
2023-02-27T14:23:21.050Z,24.57
2023-02-27T14:25:57.650Z,24.69
2023-02-27T14:27:00.486Z,24.57
2023-02-27T14:28:03.039Z,24.57
2023-02-27T14:29:05.628Z,24.57
2023-02-27T14:31:33.296Z,24.67
2023-02-27T14:32:39.497Z,24.56
2023-02-27T14:33:45.711Z,24.57
2023-02-27T14:34:50.113Z,24.56
2023-02-27T14:36:00.457Z,24.57
2023-02-27T14:37:04.667Z,24.57
2023-02-27T14:39:33.762Z,24.68
2023-02-27T14:41:01.778Z,24.57
2023-02-27T14:42:28.148Z,24.57
2023-02-27T14:44:58.298Z,24.66
2023-02-27T14:46:14.287Z,24.54
2023-02-27T14:47:31.123Z,24.53
2023-02-27T14:48:36.286Z,24.52
2023-02-27T14:49:38.890Z,24.51
2023-02-27T14:50:41.564Z,24.50
2023-02-27T14:51:46.279Z,24.50
2023-02-27T14:52:50.902Z,24.50
2023-02-27T14:54:04.750Z,24.51
2023-02-27T14:55:24.120Z,24.50
2023-02-27T14:56:28.815Z,24.50
2023-02-27T14:57:32.539Z,24.50
2023-02-27T14:58:34.997Z,24.49
2023-02-27T14:59:45.678Z,24.49
2023-02-27T15:00:53.182Z,24.49
2023-02-27T15:01:58.890Z,24.51
2023-02-27T15:03:14.236Z,24.51
2023-02-27T15:04:20.202Z,24.51
2023-02-27T15:05:23.829Z,24.52
2023-02-27T15:06:43.088Z,24.52
2023-02-27T15:07:48.077Z,24.51
2023-02-27T15:08:53.303Z,24.51
2023-02-27T15:09:58.496Z,24.52
2023-02-27T15:11:01.971Z,24.52
2023-02-27T15:12:05.156Z,24.52
2023-02-27T15:13:14.569Z,24.51
2023-02-27T15:14:20.838Z,24.51
2023-02-27T15:15:24.312Z,24.50
2023-02-27T15:16:42.059Z,24.50
2023-02-27T15:17:46.476Z,24.49
2023-02-27T15:18:52.508Z,24.49
2023-02-27T15:19:56.817Z,24.48
2023-02-27T15:20:59.776Z,24.48
2023-02-27T15:22:05.791Z,24.47
2023-02-27T15:23:24.145Z,24.47
2023-02-27T15:24:35.235Z,24.47
2023-02-27T15:27:01.878Z,24.55
2023-02-27T15:28:08.282Z,24.45
2023-02-27T15:29:15.348Z,24.44
2023-02-27T15:30:20.371Z,24.43
2023-02-27T15:31:25.978Z,24.43
2023-02-27T15:32:37.421Z,24.42
2023-02-27T15:33:40.136Z,24.41
2023-02-27T15:34:43.425Z,24.41
2023-02-27T15:35:46.342Z,24.41
2023-02-27T15:36:55.761Z,24.41
2023-02-27T15:37:59.016Z,24.41
2023-02-27T15:39:06.301Z,24.40
2023-02-27T15:40:12.270Z,24.40
2023-02-27T15:41:15.122Z,24.41
2023-02-27T15:42:19.128Z,24.39
2023-02-27T15:43:24.011Z,24.40
2023-02-27T15:44:42.682Z,24.40
2023-02-27T15:45:45.760Z,24.40
2023-02-27T15:46:49.036Z,24.40
2023-02-27T15:47:51.988Z,24.40
2023-02-27T15:48:55.223Z,24.40
2023-02-27T15:50:18.448Z,24.39
2023-02-27T15:51:21.642Z,24.39
2023-02-27T15:52:25.040Z,24.39
2023-02-27T15:53:31.208Z,24.37
2023-02-27T15:54:35.143Z,24.38
2023-02-27T15:56:55.565Z,24.49